Time;durP1;ratioP1;P1;durP2;ratioP2;P2;SDS_P1;SDS_P2;PMS_P1;PMS_P2;Temp;Humidity;BMP_temperature;BMP_pressure;BME280_temperature;BME280_humidity;BME280_pressure;Samples;Min_cycle;Max_cycle;Signal;HPM_P1;HPM_P2
2021/11/13 00:00:18;;;;;;;3.45;2.50;;;21.00;40.50;;;;;;5023580;28;20123;-52
2021/11/13 00:02:45;;;;;;;3.33;2.33;;;21.00;40.60;;;;;;5026846;28;20436;-52
2021/11/13 00:05:11;;;;;;;2.67;2.30;;;21.00;40.60;;;;;;5036004;28;20061;-52
2021/11/13 00:07:37;;;;;;;2.75;2.05;;;21.00;40.70;;;;;;5036820;28;20035;-50
2021/11/13 00:10:05;;;;;;;2.15;1.90;;;21.00;40.70;;;;;;5020976;28;20037;-50
2021/11/13 00:12:31;;;;;;;2.28;2.08;;;21.00;40.80;;;;;;5017776;28;20033;-50
2021/11/13 00:15:00;;;;;;;2.47;2.22;;;21.00;40.80;;;;;;5023811;28;20044;-54
2021/11/13 00:17:25;;;;;;;3.15;2.20;;;21.00;40.80;;;;;;5017123;28;20045;-50
2021/11/13 00:19:51;;;;;;;3.20;2.40;;;21.00;40.90;;;;;;5028284;28;20038;-51
2021/11/13 00:22:17;;;;;;;2.65;2.20;;;21.00;40.90;;;;;;5036089;28;20583;-48
2021/11/13 00:24:43;;;;;;;2.10;1.90;;;21.00;41.00;;;;;;5036590;28;20037;-51
2021/11/13 00:27:08;;;;;;;2.38;2.03;;;20.90;41.00;;;;;;5023369;28;20018;-49
2021/11/13 00:29:34;;;;;;;2.35;1.85;;;21.00;41.10;;;;;;5017608;28;20732;-48
2021/11/13 00:32:00;;;;;;;2.42;1.90;;;20.90;41.10;;;;;;5028972;28;20052;-48
2021/11/13 00:34:27;;;;;;;2.60;2.10;;;20.90;41.70;;;;;;5036515;28;20033;-49
2021/11/13 00:36:53;;;;;;;2.35;2.10;;;20.90;41.10;;;;;;5020542;28;20092;-50
2021/11/13 00:39:19;;;;;;;2.15;1.90;;;21.00;41.30;;;;;;5027756;28;20037;-50
2021/11/13 00:41:46;;;;;;;2.33;1.85;;;20.90;41.30;;;;;;5021878;28;20041;-52
2021/11/13 00:44:12;;;;;;;2.20;1.88;;;20.90;41.30;;;;;;5025117;28;20108;-49
2021/11/13 00:46:38;;;;;;;3.03;2.25;;;20.90;41.40;;;;;;5018200;28;20125;-46
2021/11/13 00:49:08;;;;;;;2.70;2.08;;;20.90;42.00;;;;;;5016343;28;20353;-54
2021/11/13 00:51:35;;;;;;;2.55;1.88;;;20.90;41.40;;;;;;5034596;28;20069;-51
2021/11/13 00:54:02;;;;;;;2.88;2.22;;;20.90;41.50;;;;;;5034723;28;20041;-54
2021/11/13 00:56:28;;;;;;;3.20;2.50;;;20.90;41.50;;;;;;5034968;28;20539;-51
2021/11/13 00:58:54;;;;;;;2.42;1.98;;;20.90;41.60;;;;;;5020700;28;20038;-50
2021/11/13 01:01:20;;;;;;;3.08;2.30;;;20.90;41.70;;;;;;5021214;28;20042;-51
2021/11/13 01:03:46;;;;;;;2.85;2.22;;;20.90;41.70;;;;;;5029768;28;20033;-52
2021/11/13 01:06:17;;;;;;;2.17;1.70;;;20.90;41.70;;;;;;5035080;28;20029;-49
2021/11/13 01:08:46;;;;;;;3.30;2.30;;;20.90;41.70;;;;;;5035691;28;20359;-50
2021/11/13 01:11:13;;;;;;;2.50;2.10;;;20.90;41.70;;;;;;5015818;28;20045;-47
2021/11/13 01:13:39;;;;;;;2.53;1.80;;;20.80;41.70;;;;;;5033182;28;20041;-48
2021/11/13 01:16:05;;;;;;;3.55;2.10;;;20.80;41.70;;;;;;5026276;28;20349;-49
2021/11/13 01:18:31;;;;;;;2.80;2.28;;;20.80;41.80;;;;;;5015887;28;20044;-48
2021/11/13 01:20:57;;;;;;;2.53;2.25;;;20.90;41.90;;;;;;5021679;28;20434;-51
2021/11/13 01:23:23;;;;;;;3.13;2.10;;;20.80;41.80;;;;;;5034676;28;20068;-51
2021/11/13 01:25:49;;;;;;;2.53;2.10;;;20.80;41.90;;;;;;5023984;28;20057;-45
2021/11/13 01:28:15;;;;;;;2.60;2.00;;;20.80;42.00;;;;;;5034251;28;20029;-52
2021/11/13 01:30:41;;;;;;;2.65;2.10;;;20.80;41.90;;;;;;5027826;28;20364;-47
2021/11/13 01:33:07;;;;;;;3.30;1.90;;;20.80;42.00;;;;;;5015651;28;20041;-47
2021/11/13 01:35:33;;;;;;;2.58;2.20;;;20.80;42.00;;;;;;5016493;28;20022;-52
2021/11/13 01:37:58;;;;;;;2.67;1.95;;;20.80;42.00;;;;;;5033933;28;20086;-47
2021/11/13 01:40:26;;;;;;;2.97;2.10;;;20.80;42.00;;;;;;5024397;28;20460;-48
2021/11/13 01:42:57;;;;;;;2.50;1.80;;;20.80;42.00;;;;;;5014830;28;20050;-48
2021/11/13 01:45:24;;;;;;;2.60;2.00;;;20.80;42.10;;;;;;5019457;28;20061;-46
2021/11/13 01:47:51;;;;;;;2.90;2.22;;;20.80;42.10;;;;;;5015352;28;20049;-48
2021/11/13 01:50:24;;;;;;;2.40;2.03;;;20.80;42.20;;;;;;5021230;28;20040;-49
2021/11/13 01:52:51;;;;;;;2.20;2.00;;;20.80;42.30;;;;;;5035031;28;20072;-46
2021/11/13 01:55:21;;;;;;;2.42;2.00;;;20.80;42.30;;;;;;5029624;28;20057;-47
2021/11/13 01:57:48;;;;;;;1.85;1.65;;;20.80;42.30;;;;;;5032506;28;20464;-48
2021/11/13 02:00:39;;;;;;;2.95;2.13;;;20.80;42.30;;;;;;5018154;28;20468;-47
2021/11/13 02:03:05;;;;;;;2.55;2.05;;;20.80;42.30;;;;;;5027995;28;20037;-50
2021/11/13 02:05:31;;;;;;;2.50;2.00;;;20.70;42.30;;;;;;5034227;28;20088;-46
2021/11/13 02:07:57;;;;;;;2.38;1.90;;;20.70;43.00;;;;;;5034105;28;20111;-48
2021/11/13 02:10:25;;;;;;;2.50;1.60;;;20.80;42.40;;;;;;5027692;28;20026;-50
2021/11/13 02:12:53;;;;;;;3.17;2.08;;;20.70;42.40;;;;;;5030010;28;20065;-51
2021/11/13 02:15:21;;;;;;;2.55;2.00;;;20.80;42.50;;;;;;5031413;28;20057;-55
2021/11/13 02:17:47;;;;;;;2.15;1.95;;;20.70;42.50;;;;;;5015328;28;20038;-51
2021/11/13 02:20:33;;;;;;;3.08;2.00;;;20.70;42.50;;;;;;5014988;28;20030;-48
2021/11/13 02:23:14;;;;;;;2.83;1.80;;;20.70;42.50;;;;;;5017943;28;20049;-55
2021/11/13 02:25:41;;;;;;;2.88;1.90;;;20.70;42.60;;;;;;5016761;28;20052;-52
2021/11/13 02:28:09;;;;;;;2.65;1.60;;;20.70;42.60;;;;;;5015154;28;20125;-56
2021/11/13 02:30:35;;;;;;;2.85;2.20;;;20.70;42.60;;;;;;5018371;28;20060;-49
2021/11/13 02:33:02;;;;;;;2.50;1.60;;;20.70;42.70;;;;;;5013674;28;20037;-47
2021/11/13 02:35:31;;;;;;;2.55;1.98;;;20.70;42.70;;;;;;5015393;28;20030;-52
2021/11/13 02:38:30;;;;;;;2.58;1.70;;;20.70;42.80;;;;;;5029245;28;20036;-49
2021/11/13 02:40:59;;;;;;;1.73;1.52;;;20.70;42.90;;;;;;5012301;28;20055;-53
2021/11/13 02:43:32;;;;;;;2.83;1.80;;;20.70;42.90;;;;;;5033822;28;20467;-46
2021/11/13 02:46:00;;;;;;;2.00;1.70;;;20.70;42.90;;;;;;5034391;28;20096;-49
2021/11/13 02:48:28;;;;;;;2.45;1.70;;;20.70;43.00;;;;;;5027832;28;20029;-47
2021/11/13 02:50:54;;;;;;;2.33;1.52;;;20.70;43.00;;;;;;5015146;28;20109;-47
2021/11/13 02:53:24;;;;;;;2.88;1.83;;;20.70;43.00;;;;;;5014958;28;20117;-44
2021/11/13 02:55:51;;;;;;;2.72;1.67;;;20.70;43.10;;;;;;5019914;28;20026;-47
2021/11/13 02:58:20;;;;;;;2.55;1.90;;;20.60;43.00;;;;;;5015076;28;20033;-48
2021/11/13 03:00:49;;;;;;;2.17;1.80;;;20.70;43.10;;;;;;5021993;28;20395;-47
2021/11/13 03:03:20;;;;;;;2.03;1.73;;;20.60;43.10;;;;;;5029906;28;20034;-49
2021/11/13 03:05:49;;;;;;;1.70;1.60;;;20.60;43.20;;;;;;5014735;28;20179;-47
2021/11/13 03:08:21;;;;;;;2.05;1.60;;;20.60;43.20;;;;;;5014940;28;20029;-48
2021/11/13 03:10:48;;;;;;;1.80;1.60;;;20.70;43.30;;;;;;5023232;28;20474;-51
2021/11/13 03:13:13;;;;;;;1.70;1.55;;;20.60;43.30;;;;;;5023616;28;20473;-52
2021/11/13 03:15:39;;;;;;;2.10;1.77;;;20.60;43.30;;;;;;5018202;28;20057;-49
2021/11/13 03:18:05;;;;;;;1.95;1.60;;;20.60;44.00;;;;;;5034562;28;20036;-48
2021/11/13 03:20:31;;;;;;;2.42;1.40;;;20.60;43.40;;;;;;5032399;28;20103;-46
2021/11/13 03:22:58;;;;;;;2.20;1.80;;;20.60;43.40;;;;;;5034391;28;20040;-47
2021/11/13 03:25:29;;;;;;;2.65;2.00;;;20.60;43.40;;;;;;5028812;28;20419;-50
2021/11/13 03:27:59;;;;;;;1.50;1.40;;;20.60;43.50;;;;;;5017963;28;20053;-48
2021/11/13 03:30:25;;;;;;;2.63;1.77;;;20.60;43.60;;;;;;5025091;28;20364;-53
2021/11/13 03:32:52;;;;;;;2.25;1.60;;;20.60;43.60;;;;;;5037544;28;20101;-48
2021/11/13 03:35:27;;;;;;;1.70;1.45;;;20.60;43.60;;;;;;5036930;28;20105;-51
2021/11/13 03:38:02;;;;;;;2.50;1.73;;;20.60;43.70;;;;;;5035249;28;20120;-48
2021/11/13 03:40:28;;;;;;;2.15;1.80;;;20.60;43.70;;;;;;5031394;28;20029;-48
2021/11/13 03:42:54;;;;;;;2.00;1.67;;;20.60;43.70;;;;;;5020166;28;20022;-46
2021/11/13 03:45:20;;;;;;;2.13;1.35;;;20.60;43.70;;;;;;5021195;28;20034;-46
2021/11/13 03:47:46;;;;;;;2.65;1.63;;;20.60;43.80;;;;;;5017999;28;20033;-52
2021/11/13 03:50:12;;;;;;;2.80;1.80;;;20.60;43.80;;;;;;5030542;28;20021;-49
2021/11/13 03:52:38;;;;;;;2.20;1.55;;;20.60;43.80;;;;;;5026541;28;20084;-50
2021/11/13 03:55:04;;;;;;;2.40;1.65;;;20.60;43.80;;;;;;5034263;28;20081;-47
2021/11/13 03:57:30;;;;;;;2.53;1.83;;;20.60;43.90;;;;;;5030405;28;20043;-49
2021/11/13 03:59:56;;;;;;;1.65;1.40;;;20.50;43.90;;;;;;5035186;28;20049;-47
2021/11/13 04:02:25;;;;;;;1.88;1.70;;;20.60;44.00;;;;;;5036711;28;20349;-48
2021/11/13 04:04:51;;;;;;;2.22;1.83;;;20.60;44.00;;;;;;5036887;28;20025;-49
2021/11/13 04:07:17;;;;;;;2.58;1.67;;;20.60;44.00;;;;;;5025952;28;20334;-49
2021/11/13 04:09:43;;;;;;;2.35;1.90;;;20.50;44.00;;;;;;5029439;28;20061;-47
2021/11/13 04:12:10;;;;;;;2.10;1.70;;;20.50;44.00;;;;;;5027236;28;20034;-47
2021/11/13 04:14:39;;;;;;;2.17;1.60;;;20.50;44.10;;;;;;5036009;28;20022;-50
2021/11/13 04:17:05;;;;;;;2.22;1.63;;;20.50;44.10;;;;;;5028233;28;20040;-47
2021/11/13 04:19:31;;;;;;;3.25;1.90;;;20.50;44.20;;;;;;5017768;28;20445;-49
2021/11/13 04:21:57;;;;;;;2.25;1.73;;;20.50;44.20;;;;;;5017346;28;20049;-48
2021/11/13 04:24:23;;;;;;;2.03;1.60;;;20.50;44.30;;;;;;5036347;28;20029;-48
2021/11/13 04:26:49;;;;;;;2.92;1.85;;;20.50;44.30;;;;;;5026363;28;20464;-49
2021/11/13 04:29:15;;;;;;;6.13;1.60;;;20.50;44.30;;;;;;5016904;28;20021;-47
2021/11/13 04:31:41;;;;;;;1.67;1.50;;;20.50;44.30;;;;;;5034693;28;20120;-45
2021/11/13 04:34:13;;;;;;;6.20;1.77;;;20.50;44.40;;;;;;5033641;28;20549;-48
2021/11/13 04:36:42;;;;;;;1.98;1.63;;;20.50;44.40;;;;;;5027711;28;20045;-48
2021/11/13 04:39:10;;;;;;;2.92;2.03;;;20.50;44.50;;;;;;5017339;28;20360;-45
2021/11/13 04:41:38;;;;;;;2.58;1.90;;;20.50;44.50;;;;;;5017758;28;20052;-46
2021/11/13 04:44:04;;;;;;;1.98;1.80;;;20.50;44.50;;;;;;5035236;28;20044;-52
2021/11/13 04:46:29;;;;;;;2.50;1.45;;;20.50;44.50;;;;;;5030370;28;20030;-47
2021/11/13 04:48:55;;;;;;;2.28;1.85;;;20.50;44.60;;;;;;5030853;28;20033;-50
2021/11/13 04:51:24;;;;;;;2.13;1.58;;;20.50;44.60;;;;;;5027471;28;20084;-48
2021/11/13 04:53:50;;;;;;;1.80;1.60;;;20.50;44.60;;;;;;5017099;28;20049;-46
2021/11/13 04:56:16;;;;;;;2.53;1.63;;;20.50;44.60;;;;;;5033151;28;20030;-46
2021/11/13 04:58:42;;;;;;;2.30;1.50;;;20.50;44.70;;;;;;5029390;28;20018;-49
2021/11/13 05:01:08;;;;;;;2.50;1.70;;;20.50;44.70;;;;;;5030758;28;20080;-46
2021/11/13 05:03:35;;;;;;;1.70;1.40;;;20.50;44.70;;;;;;5036083;28;20106;-47
2021/11/13 05:06:01;;;;;;;2.53;1.48;;;20.50;44.70;;;;;;5023702;28;20053;-46
2021/11/13 05:08:27;;;;;;;2.10;1.50;;;20.50;44.70;;;;;;5020866;28;20072;-48
2021/11/13 05:10:52;;;;;;;2.40;1.80;;;20.50;44.80;;;;;;5027921;28;20038;-47
2021/11/13 05:13:19;;;;;;;1.92;1.50;;;20.50;44.80;;;;;;5036570;28;20472;-49
2021/11/13 05:15:46;;;;;;;1.70;1.60;;;20.50;44.80;;;;;;5031579;28;20069;-50
2021/11/13 05:18:12;;;;;;;2.78;1.70;;;20.50;44.90;;;;;;5021050;28;20041;-46
2021/11/13 05:20:38;;;;;;;2.15;1.50;;;20.50;44.90;;;;;;5029672;28;20041;-49
2021/11/13 05:23:04;;;;;;;2.10;1.58;;;20.50;45.50;;;;;;5016289;28;20033;-47
2021/11/13 05:25:30;;;;;;;1.77;1.48;;;20.50;45.00;;;;;;5026879;28;20025;-46
2021/11/13 05:27:56;;;;;;;2.15;1.60;;;20.50;45.00;;;;;;5034680;28;20048;-46
2021/11/13 05:30:25;;;;;;;1.92;1.38;;;20.50;45.00;;;;;;5025097;28;20033;-50
2021/11/13 05:32:52;;;;;;;1.80;1.50;;;20.50;45.00;;;;;;5030008;28;20356;-49
2021/11/13 05:35:19;;;;;;;2.25;1.63;;;20.50;45.10;;;;;;5034886;28;20120;-46
2021/11/13 05:37:46;;;;;;;1.80;1.17;;;20.50;45.10;;;;;;5035569;28;20040;-51
2021/11/13 05:40:13;;;;;;;2.13;1.60;;;20.50;45.10;;;;;;5026634;28;20433;-46
2021/11/13 05:42:40;;;;;;;1.65;1.38;;;20.50;45.20;;;;;;5034391;28;20025;-47
2021/11/13 05:45:08;;;;;;;1.92;1.27;;;20.50;45.20;;;;;;5033933;28;20029;-50
2021/11/13 05:47:35;;;;;;;1.70;1.35;;;20.50;45.30;;;;;;5020008;28;20026;-48
2021/11/13 05:50:05;;;;;;;1.58;1.40;;;20.50;45.30;;;;;;5014867;28;20117;-51
2021/11/13 05:52:31;;;;;;;1.52;1.42;;;20.40;45.30;;;;;;5016296;28;20053;-51
2021/11/13 05:54:57;;;;;;;1.70;1.45;;;20.50;45.40;;;;;;5028176;28;20471;-50
2021/11/13 05:57:22;;;;;;;1.40;1.30;;;20.40;45.40;;;;;;5021440;28;20041;-51
2021/11/13 05:59:48;;;;;;;2.00;1.40;;;20.40;45.40;;;;;;5021129;28;20099;-46
2021/11/13 06:02:14;;;;;;;1.92;1.48;;;20.40;45.40;;;;;;5015462;28;20030;-51
2021/11/13 06:04:40;;;;;;;1.30;1.20;;;20.40;45.50;;;;;;5015391;28;20045;-45
2021/11/13 06:07:05;;;;;;;7.72;1.20;;;20.40;45.50;;;;;;5026603;28;20443;-49
2021/11/13 06:09:31;;;;;;;2.50;1.27;;;20.40;45.60;;;;;;5025271;28;20113;-49
2021/11/13 06:11:57;;;;;;;1.40;1.20;;;20.40;45.70;;;;;;5032477;28;20029;-48
2021/11/13 06:14:23;;;;;;;1.20;1.10;;;20.40;45.70;;;;;;5033544;28;20041;-48
2021/11/13 06:16:49;;;;;;;1.83;1.20;;;20.40;45.70;;;;;;5023551;28;20030;-49
2021/11/13 06:19:14;;;;;;;1.25;1.05;;;20.40;45.80;;;;;;5015228;28;20077;-50
2021/11/13 06:21:40;;;;;;;1.52;1.27;;;20.40;45.80;;;;;;5018014;28;20373;-48
2021/11/13 06:24:08;;;;;;;2.50;1.10;;;20.40;45.80;;;;;;5017250;28;20030;-50
2021/11/13 06:26:34;;;;;;;1.30;1.20;;;20.40;45.80;;;;;;5018027;28;20058;-48
2021/11/13 06:29:00;;;;;;;1.33;1.23;;;20.50;45.90;;;;;;5022666;28;20034;-48
2021/11/13 06:31:26;;;;;;;1.35;0.95;;;20.40;45.80;;;;;;5029471;28;20038;-47
2021/11/13 06:33:52;;;;;;;1.17;1.08;;;20.40;45.90;;;;;;5014950;28;20065;-48
2021/11/13 06:36:18;;;;;;;1.30;1.17;;;20.40;45.90;;;;;;5016353;28;20022;-47
2021/11/13 06:38:43;;;;;;;1.10;1.00;;;20.40;45.90;;;;;;5015103;28;20127;-47
2021/11/13 06:41:09;;;;;;;1.30;1.10;;;20.40;45.90;;;;;;5017512;28;20183;-48
2021/11/13 06:43:35;;;;;;;2.60;1.23;;;20.40;45.90;;;;;;5015199;28;20113;-47
2021/11/13 06:46:01;;;;;;;1.23;1.05;;;20.40;45.90;;;;;;5033876;28;20397;-45
2021/11/13 06:48:27;;;;;;;1.10;1.00;;;20.40;45.90;;;;;;5034306;28;20037;-47
2021/11/13 06:50:53;;;;;;;1.30;1.20;;;20.40;45.90;;;;;;5014939;28;20406;-47
2021/11/13 06:53:20;;;;;;;1.33;1.00;;;20.40;45.90;;;;;;5015043;28;20030;-48
2021/11/13 06:55:49;;;;;;;1.58;0.80;;;20.40;45.90;;;;;;5029383;28;20440;-45
2021/11/13 06:58:16;;;;;;;1.38;1.08;;;20.40;45.90;;;;;;5023894;28;20029;-52
2021/11/13 07:00:42;;;;;;;1.05;0.95;;;20.40;45.90;;;;;;5037158;28;20037;-48
2021/11/13 07:03:09;;;;;;;1.42;0.98;;;20.40;45.90;;;;;;5029826;28;20080;-49
2021/11/13 07:05:34;;;;;;;1.08;0.88;;;20.40;45.90;;;;;;5018378;28;20400;-47
2021/11/13 07:08:00;;;;;;;1.38;1.20;;;20.40;45.90;;;;;;5033886;28;20033;-48
2021/11/13 07:10:27;;;;;;;1.50;1.23;;;20.40;46.00;;;;;;5030472;28;20025;-48
2021/11/13 07:12:54;;;;;;;1.45;1.10;;;20.40;46.10;;;;;;5037582;28;20033;-48
2021/11/13 07:15:21;;;;;;;1.35;1.20;;;20.40;46.10;;;;;;5037669;28;20447;-50
2021/11/13 07:17:46;;;;;;;1.20;0.90;;;20.40;46.10;;;;;;5021976;28;20029;-50
2021/11/13 07:20:13;;;;;;;0.80;0.80;;;20.40;46.20;;;;;;5017933;28;20030;-53
2021/11/13 07:22:41;;;;;;;1.73;1.33;;;20.40;46.20;;;;;;5020310;28;20462;-51
2021/11/13 07:25:13;;;;;;;1.02;0.80;;;20.40;46.20;;;;;;5027355;28;20064;-49
2021/11/13 07:27:40;;;;;;;0.90;0.75;;;20.40;46.30;;;;;;5021975;28;20036;-50
2021/11/13 07:30:08;;;;;;;1.00;0.93;;;20.40;46.30;;;;;;5018012;28;20069;-53
2021/11/13 07:32:33;;;;;;;1.02;0.90;;;20.40;46.30;;;;;;5017893;28;20042;-48
2021/11/13 07:35:00;;;;;;;1.20;0.90;;;20.40;46.30;;;;;;5029597;28;20037;-46
2021/11/13 07:37:26;;;;;;;1.13;0.90;;;20.40;46.30;;;;;;5022991;28;20038;-47
2021/11/13 07:39:53;;;;;;;1.05;0.82;;;20.40;46.40;;;;;;5022636;28;20372;-46
2021/11/13 07:42:19;;;;;;;1.30;1.00;;;20.40;46.40;;;;;;5019265;28;20088;-47
2021/11/13 07:44:45;;;;;;;1.40;1.10;;;20.40;46.40;;;;;;5017534;28;20026;-50
2021/11/13 07:47:11;;;;;;;1.35;1.15;;;20.40;46.40;;;;;;5020930;28;20045;-50
2021/11/13 07:49:37;;;;;;;0.88;0.80;;;20.40;46.50;;;;;;5017539;28;20037;-52
2021/11/13 07:52:04;;;;;;;1.08;0.98;;;20.30;46.50;;;;;;5025028;28;20076;-52
2021/11/13 07:54:30;;;;;;;1.38;1.27;;;20.40;46.60;;;;;;5032099;28;20056;-48
2021/11/13 07:56:56;;;;;;;1.42;1.02;;;20.40;46.80;;;;;;5027005;28;20033;-46
2021/11/13 07:59:22;;;;;;;3.22;1.20;;;20.40;46.80;;;;;;5026562;28;20057;-50
2021/11/13 08:01:48;;;;;;;1.00;0.90;;;20.40;47.40;;;;;;5021190;28;20040;-51
2021/11/13 08:04:15;;;;;;;1.50;1.38;;;20.40;46.70;;;;;;5030376;28;20365;-52
2021/11/13 08:06:41;;;;;;;1.23;1.00;;;20.50;46.80;;;;;;5011405;28;20029;-45
2021/11/13 08:09:07;;;;;;;1.17;1.05;;;20.70;46.70;;;;;;5052526;28;20064;-49
2021/11/13 08:11:33;;;;;;;1.15;0.77;;;20.80;46.60;;;;;;5019520;28;20049;-47
2021/11/13 08:13:58;;;;;;;1.00;0.80;;;20.90;46.60;;;;;;5024016;28;20022;-49
2021/11/13 08:16:24;;;;;;;1.48;1.08;;;21.10;46.60;;;;;;5017444;28;20026;-51
2021/11/13 08:18:53;;;;;;;0.90;0.75;;;21.20;46.30;;;;;;5028397;28;20057;-52
2021/11/13 08:21:21;;;;;;;1.35;1.00;;;21.40;46.40;;;;;;5023586;28;20088;-49
2021/11/13 08:23:47;;;;;;;1.38;1.05;;;21.50;46.80;;;;;;5029099;28;20044;-51
2021/11/13 08:26:12;;;;;;;1.15;0.93;;;21.60;46.10;;;;;;5017054;28;20037;-53
2021/11/13 08:28:38;;;;;;;1.60;1.10;;;21.60;45.90;;;;;;5030115;28;20120;-50
2021/11/13 08:31:05;;;;;;;1.25;0.90;;;21.70;45.80;;;;;;5026128;28;20337;-49
2021/11/13 08:33:31;;;;;;;1.23;0.73;;;21.80;45.70;;;;;;5034496;28;20095;-53
2021/11/13 08:35:57;;;;;;;0.80;0.70;;;21.90;46.20;;;;;;5031931;28;20438;-48
2021/11/13 08:38:23;;;;;;;1.00;0.82;;;22.00;45.40;;;;;;5025724;28;20125;-51
2021/11/13 08:40:54;;;;;;;1.17;0.80;;;22.10;45.40;;;;;;5025152;28;20567;-49
2021/11/13 08:43:21;;;;;;;0.98;0.77;;;22.10;45.20;;;;;;5021844;28;20449;-48
2021/11/13 08:45:49;;;;;;;1.23;0.95;;;22.20;45.20;;;;;;5035239;28;20025;-51
2021/11/13 08:48:15;;;;;;;1.63;0.95;;;22.30;45.10;;;;;;5022750;28;20026;-52
2021/11/13 08:50:43;;;;;;;0.90;0.80;;;22.40;45.00;;;;;;5024796;28;20026;-48
2021/11/13 08:53:10;;;;;;;1.60;0.85;;;22.40;44.90;;;;;;5022949;28;20081;-49
2021/11/13 08:55:38;;;;;;;0.80;0.80;;;22.50;44.80;;;;;;5020736;28;20112;-49
2021/11/13 08:58:05;;;;;;;1.10;0.80;;;22.50;44.70;;;;;;5027838;28;20022;-52
2021/11/13 09:00:43;;;;;;;0.70;0.60;;;22.60;44.70;;;;;;5030136;28;20105;-48
2021/11/13 09:03:14;;;;;;;1.08;0.75;;;22.70;44.50;;;;;;5031607;28;20519;-53
2021/11/13 09:05:40;;;;;;;1.27;1.00;;;22.70;44.40;;;;;;5021127;28;20557;-49
2021/11/13 09:08:07;;;;;;;0.93;0.77;;;22.80;44.40;;;;;;5020958;28;20405;-51
2021/11/13 09:10:35;;;;;;;1.40;0.90;;;22.80;44.30;;;;;;5030528;28;20356;-50
2021/11/13 09:13:01;;;;;;;1.67;0.80;;;22.80;44.30;;;;;;5020330;28;20026;-51
2021/11/13 09:15:30;;;;;;;0.82;0.65;;;22.90;44.30;;;;;;5026859;28;20022;-50
2021/11/13 09:17:56;;;;;;;1.42;0.90;;;22.90;44.20;;;;;;5017657;28;20087;-52
2021/11/13 09:20:23;;;;;;;1.30;0.88;;;23.00;44.20;;;;;;5020017;28;20038;-49
2021/11/13 09:22:51;;;;;;;1.08;0.88;;;23.00;44.10;;;;;;5019834;28;20033;-50
2021/11/13 09:25:17;;;;;;;1.02;0.73;;;23.00;44.10;;;;;;5016028;28;20038;-48
2021/11/13 09:27:45;;;;;;;1.23;0.93;;;23.10;44.10;;;;;;5017157;28;20109;-54
2021/11/13 09:30:18;;;;;;;1.23;0.70;;;23.10;44.00;;;;;;5021185;28;20025;-50
2021/11/13 09:32:46;;;;;;;1.45;0.90;;;23.20;44.00;;;;;;5017603;28;20068;-51
2021/11/13 09:35:13;;;;;;;1.35;1.02;;;23.20;44.00;;;;;;5024726;28;20084;-51
2021/11/13 09:37:40;;;;;;;1.88;1.23;;;23.20;43.90;;;;;;5021019;28;20033;-50
2021/11/13 09:40:10;;;;;;;2.40;1.13;;;23.20;43.80;;;;;;5021736;28;20042;-54
2021/11/13 09:42:36;;;;;;;0.93;0.80;;;23.30;43.80;;;;;;5022834;28;20109;-53
2021/11/13 09:45:04;;;;;;;1.10;1.00;;;23.30;43.80;;;;;;5022346;28;20105;-53
2021/11/13 09:47:30;;;;;;;1.20;1.00;;;23.30;43.80;;;;;;5019668;28;20034;-55
2021/11/13 09:49:58;;;;;;;1.08;0.88;;;23.30;43.80;;;;;;5021286;28;20120;-54
2021/11/13 09:52:24;;;;;;;1.30;1.00;;;23.30;43.80;;;;;;5027064;28;20039;-54
2021/11/13 09:54:50;;;;;;;1.55;1.10;;;23.30;43.80;;;;;;5025130;28;20046;-50
2021/11/13 09:57:16;;;;;;;1.70;0.98;;;23.20;43.80;;;;;;5017944;28;20052;-51
2021/11/13 09:59:42;;;;;;;1.75;1.30;;;23.20;43.90;;;;;;5019818;28;20322;-51
2021/11/13 10:02:09;;;;;;;9.50;4.47;;;23.20;44.00;;;;;;5023717;28;20025;-55
2021/11/13 10:04:35;;;;;;;16.67;6.70;;;23.20;44.50;;;;;;5024675;28;20036;-53
2021/11/13 10:07:00;;;;;;;24.92;9.15;;;23.10;45.00;;;;;;5027653;28;20030;-51
2021/11/13 10:09:26;;;;;;;22.98;9.90;;;23.10;45.80;;;;;;5024587;28;20034;-47
2021/11/13 10:11:53;;;;;;;18.83;8.32;;;23.10;46.30;;;;;;5024708;28;20030;-47
2021/11/13 10:14:44;;;;;;;19.42;8.75;;;23.10;46.60;;;;;;5014301;28;20058;-50
2021/11/13 10:17:22;;;;;;;22.40;9.68;;;23.10;46.80;;;;;;5010696;28;20038;-50
2021/11/13 10:19:50;;;;;;;18.95;9.27;;;23.10;47.40;;;;;;5026394;28;20030;-57
2021/11/13 10:22:18;;;;;;;17.55;8.48;;;23.00;47.70;;;;;;5015316;28;20131;-54
2021/11/13 10:24:47;;;;;;;18.48;8.50;;;23.00;48.10;;;;;;5018975;28;20056;-48
2021/11/13 10:27:14;;;;;;;16.25;8.27;;;23.00;48.60;;;;;;5026181;28;20047;-48
2021/11/13 10:29:41;;;;;;;14.07;8.30;;;23.00;48.90;;;;;;5021215;28;20040;-47
2021/11/13 10:32:14;;;;;;;13.57;7.18;;;23.10;49.00;;;;;;5025567;28;20036;-53
2021/11/13 10:34:49;;;;;;;11.88;6.50;;;23.10;49.00;;;;;;5027710;28;20025;-49
2021/11/13 10:37:21;;;;;;;15.45;6.35;;;23.10;48.70;;;;;;5029507;28;20034;-48
2021/11/13 10:39:48;;;;;;;14.57;7.20;;;23.10;48.50;;;;;;5021246;28;20022;-48
2021/11/13 10:42:18;;;;;;;20.13;8.00;;;23.10;48.80;;;;;;5025330;28;20034;-54
2021/11/13 10:44:53;;;;;;;18.48;8.07;;;23.10;49.40;;;;;;5019920;28;20030;-51
2021/11/13 10:47:29;;;;;;;21.50;9.23;;;23.20;50.50;;;;;;5028673;28;20112;-44
2021/11/13 10:50:29;;;;;;;21.08;9.23;;;23.20;51.20;;;;;;5029700;28;20465;-45
2021/11/13 10:53:08;;;;;;;18.00;7.45;;;23.20;51.30;;;;;;5028508;28;20511;-52
2021/11/13 10:55:39;;;;;;;17.27;6.32;;;23.20;51.00;;;;;;5031144;28;20107;-47
2021/11/13 10:58:36;;;;;;;13.05;6.00;;;23.20;50.60;;;;;;5020955;28;20092;-49
2021/11/13 11:01:22;;;;;;;10.88;4.95;;;23.20;50.10;;;;;;5026821;28;20045;-53
2021/11/13 11:03:53;;;;;;;12.95;6.28;;;23.10;49.60;;;;;;5030962;28;20033;-44
2021/11/13 11:06:30;;;;;;;13.70;6.20;;;23.10;49.80;;;;;;5031601;28;20034;-45
2021/11/13 11:08:58;;;;;;;20.98;8.23;;;23.20;50.20;;;;;;5031245;28;20048;-51
2021/11/13 11:11:28;;;;;;;20.05;8.55;;;23.10;50.50;;;;;;5021503;28;20053;-47
2021/11/13 11:14:00;;;;;;;19.65;9.30;;;23.20;51.10;;;;;;5024598;28;20030;-50
2021/11/13 11:16:38;;;;;;;18.95;8.63;;;23.20;51.60;;;;;;5030780;28;20041;-52
2021/11/13 11:19:10;;;;;;;15.75;7.20;;;23.20;51.60;;;;;;5028147;28;20029;-48
2021/11/13 11:21:42;;;;;;;12.30;6.03;;;23.20;51.20;;;;;;5027987;28;20457;-49
2021/11/13 11:24:12;;;;;;;15.50;5.68;;;23.20;51.40;;;;;;5027949;28;20112;-47
2021/11/13 11:26:40;;;;;;;12.02;4.90;;;23.20;50.30;;;;;;5019578;28;20057;-48
2021/11/13 11:29:07;;;;;;;9.85;5.13;;;23.20;50.00;;;;;;5031895;28;20049;-52
2021/11/13 11:31:50;;;;;;;9.88;5.03;;;23.10;49.70;;;;;;5018064;28;20029;-49
2021/11/13 11:34:38;;;;;;;10.13;4.88;;;23.10;49.40;;;;;;5019377;28;20126;-49
2021/11/13 11:37:18;;;;;;;8.52;4.15;;;23.10;49.10;;;;;;5028310;28;20099;-50
2021/11/13 11:39:48;;;;;;;8.35;3.70;;;23.10;49.30;;;;;;5024254;28;20055;-54
2021/11/13 11:42:14;;;;;;;8.93;4.82;;;23.00;49.10;;;;;;5030347;28;20083;-54
2021/11/13 11:44:42;;;;;;;10.35;6.07;;;23.00;49.30;;;;;;5021252;28;20040;-50
2021/11/13 11:47:12;;;;;;;13.27;6.93;;;23.10;50.20;;;;;;5020903;28;20510;-58
2021/11/13 11:49:44;;;;;;;15.70;7.13;;;23.10;51.00;;;;;;5025115;28;20480;-50
2021/11/13 11:52:12;;;;;;;12.75;5.90;;;23.10;51.40;;;;;;5024013;28;20040;-51
2021/11/13 11:54:38;;;;;;;13.45;4.95;;;23.10;51.20;;;;;;5025143;28;20111;-47
2021/11/13 11:57:04;;;;;;;11.55;5.32;;;23.10;50.90;;;;;;5025327;28;20112;-46
2021/11/13 11:59:32;;;;;;;8.52;3.70;;;23.10;50.50;;;;;;5018720;28;20350;-53
2021/11/13 12:02:16;;;;;;;9.60;3.97;;;23.10;50.20;;;;;;5018370;28;20536;-55
2021/11/13 12:04:53;;;;;;;5.03;2.88;;;23.20;49.90;;;;;;5021767;28;20061;-55
2021/11/13 12:07:41;;;;;;;7.03;3.22;;;23.10;49.60;;;;;;5016621;28;20041;-53
2021/11/13 12:10:30;;;;;;;3.90;2.33;;;23.20;49.30;;;;;;5015852;28;20038;-52
2021/11/13 12:13:02;;;;;;;7.55;2.03;;;23.20;49.10;;;;;;5018717;28;20446;-55
2021/11/13 12:15:29;;;;;;;3.25;1.70;;;23.20;48.80;;;;;;5015890;28;20117;-55
2021/11/13 12:18:11;;;;;;;4.78;2.00;;;23.20;48.60;;;;;;5015821;28;20084;-53
2021/11/13 12:20:40;;;;;;;3.85;1.98;;;23.30;48.40;;;;;;5018477;28;20053;-54
2021/11/13 12:23:15;;;;;;;3.08;1.70;;;23.20;48.10;;;;;;5024599;28;20292;-51
2021/11/13 12:26:00;;;;;;;4.70;2.30;;;23.30;48.00;;;;;;5032816;28;20457;-56
2021/11/13 12:28:30;;;;;;;3.25;1.85;;;23.30;47.80;;;;;;5023135;28;20364;-56
2021/11/13 12:31:05;;;;;;;2.78;1.67;;;23.20;47.80;;;;;;5019283;28;20040;-49
2021/11/13 12:33:31;;;;;;;2.40;1.35;;;23.30;47.70;;;;;;5017864;28;20062;-52
2021/11/13 12:36:02;;;;;;;2.90;1.60;;;23.20;47.70;;;;;;5027231;28;20100;-50
2021/11/13 12:38:31;;;;;;;3.97;1.50;;;23.20;47.60;;;;;;5021470;28;20021;-51
2021/11/13 12:41:28;;;;;;;3.08;1.50;;;23.20;47.50;;;;;;5021455;28;20107;-51
2021/11/13 12:43:58;;;;;;;2.67;1.20;;;23.20;47.40;;;;;;5023559;28;20037;-51
2021/11/13 12:46:46;;;;;;;2.38;1.10;;;23.20;47.40;;;;;;5025072;28;20520;-53
2021/11/13 12:49:18;;;;;;;2.13;1.30;;;23.20;47.10;;;;;;5017257;28;20048;-49
2021/11/13 12:51:56;;;;;;;2.13;1.00;;;23.30;47.00;;;;;;5025046;28;20029;-49